createdAt,value
2022-09-04T00:03:04.248Z,28.90
2022-09-04T00:06:11.541Z,31.10
2022-09-04T00:09:28.703Z,31.90
2022-09-04T00:12:35.221Z,31.20
2022-09-04T00:15:42.822Z,30.60
2022-09-04T00:18:47.161Z,31.40
2022-09-04T00:21:53.598Z,30.40
2022-09-04T00:25:18.330Z,32.20
2022-09-04T00:28:37.561Z,31.50
2022-09-04T00:31:44.789Z,31.50
2022-09-04T00:34:46.681Z,30.10
2022-09-04T00:38:03.767Z,29.60
2022-09-04T00:41:31.239Z,29.90
2022-09-04T00:45:02.254Z,30.60
2022-09-04T00:48:22.235Z,29.00
2022-09-04T00:51:43.473Z,30.50
2022-09-04T00:55:11.332Z,29.90
2022-09-04T00:58:31.490Z,31.00
2022-09-04T01:01:33.435Z,29.60
2022-09-04T01:04:44.075Z,28.50
2022-09-04T01:08:27.881Z,30.10
2022-09-04T01:11:29.824Z,30.10
2022-09-04T01:14:38.476Z,28.80
2022-09-04T01:18:02.520Z,30.50
2022-09-04T01:21:11.146Z,28.60
2022-09-04T01:24:44.248Z,28.00
2022-09-04T01:28:13.548Z,28.30
2022-09-04T01:32:03.613Z,27.20
2022-09-04T01:35:53.004Z,28.60
2022-09-04T01:38:59.237Z,30.40
2022-09-04T01:42:12.502Z,30.70
2022-09-04T01:45:24.555Z,29.60
2022-09-04T01:48:45.633Z,29.80
2022-09-04T01:52:14.818Z,32.50
2022-09-04T01:55:27.040Z,34.90
2022-09-04T01:58:35.506Z,30.90
2022-09-04T02:02:22.268Z,31.80
2022-09-04T02:05:36.481Z,34.00
2022-09-04T02:08:55.471Z,35.00
2022-09-04T02:12:09.293Z,33.30
2022-09-04T02:15:43.256Z,32.60
2022-09-04T02:18:48.016Z,33.00
2022-09-04T02:22:12.625Z,33.40
2022-09-04T02:25:26.660Z,35.50
2022-09-04T02:28:50.312Z,32.60
2022-09-04T02:32:05.291Z,31.00
2022-09-04T02:35:27.332Z,34.00
2022-09-04T02:38:37.349Z,31.60
2022-09-04T02:42:04.528Z,32.00
2022-09-04T02:45:28.037Z,32.70
2022-09-04T02:48:45.118Z,32.70
2022-09-04T02:52:05.656Z,31.90
2022-09-04T02:55:44.788Z,34.00
2022-09-04T02:59:10.082Z,37.20
2022-09-04T03:02:21.342Z,34.70
2022-09-04T03:05:26.655Z,33.20
2022-09-04T03:08:43.679Z,33.30
2022-09-04T03:11:59.740Z,34.20
2022-09-04T03:15:04.835Z,35.80
2022-09-04T03:18:21.287Z,35.00
2022-09-04T03:21:35.569Z,36.20
2022-09-04T03:24:56.151Z,34.40
2022-09-04T03:27:57.927Z,34.50
2022-09-04T03:31:09.938Z,34.50
2022-09-04T03:34:34.669Z,34.60
2022-09-04T03:38:13.035Z,34.20
2022-09-04T03:41:36.331Z,35.30
2022-09-04T03:45:04.000Z,32.90
2022-09-04T03:48:19.041Z,33.10
2022-09-04T03:51:47.339Z,37.40
2022-09-04T03:55:09.865Z,36.80
2022-09-04T03:58:22.827Z,36.80
2022-09-04T04:01:25.258Z,36.90
2022-09-04T04:05:00.385Z,35.30
2022-09-04T04:08:37.815Z,34.70
2022-09-04T04:12:13.598Z,34.60
2022-09-04T04:15:37.229Z,35.10
2022-09-04T04:18:56.127Z,35.70
2022-09-04T04:22:26.285Z,37.50
2022-09-04T04:25:27.966Z,35.80
2022-09-04T04:28:42.215Z,37.20
2022-09-04T04:32:09.590Z,33.70
2022-09-04T04:35:30.538Z,34.00
2022-09-04T04:38:47.794Z,32.10
2022-09-04T04:42:06.277Z,33.30
2022-09-04T04:45:31.034Z,34.20
2022-09-04T04:49:07.467Z,36.20
2022-09-04T04:52:19.258Z,34.50
2022-09-04T04:55:38.668Z,34.30
2022-09-04T04:59:08.516Z,33.50
2022-09-04T05:02:31.169Z,33.50
2022-09-04T05:05:55.310Z,36.60
2022-09-04T05:09:06.092Z,34.40
2022-09-04T05:12:17.525Z,29.20
2022-09-04T05:15:25.137Z,29.70
2022-09-04T05:19:04.733Z,30.50
2022-09-04T05:22:34.680Z,27.40
2022-09-04T05:25:58.781Z,27.70
2022-09-04T05:29:51.569Z,27.80
2022-09-04T05:32:59.106Z,26.70
2022-09-04T05:36:16.748Z,24.30
2022-09-04T05:39:33.051Z,25.10
2022-09-04T05:43:11.148Z,25.10
2022-09-04T05:46:37.895Z,24.10
2022-09-04T05:50:37.086Z,22.50
2022-09-04T05:54:13.285Z,23.80
2022-09-04T05:57:17.852Z,24.20
2022-09-04T06:00:20.170Z,22.50
2022-09-04T06:03:45.995Z,22.20
2022-09-04T06:06:50.696Z,23.00
2022-09-04T06:09:58.905Z,22.30
2022-09-04T06:13:25.508Z,22.20
2022-09-04T06:16:47.231Z,22.00
2022-09-04T06:20:04.823Z,21.40
2022-09-04T06:23:24.843Z,21.10
2022-09-04T06:26:40.711Z,21.30
2022-09-04T06:30:00.670Z,20.20
2022-09-04T06:33:17.330Z,21.60
2022-09-04T06:36:53.211Z,22.00
2022-09-04T06:40:03.219Z,20.40
2022-09-04T06:43:11.264Z,17.90
2022-09-04T06:46:19.264Z,20.20
2022-09-04T06:49:36.130Z,18.80
2022-09-04T06:52:53.220Z,18.70
2022-09-04T06:56:04.706Z,23.20
2022-09-04T06:59:21.787Z,18.50
2022-09-04T07:02:28.980Z,19.60
2022-09-04T07:05:54.581Z,18.90
2022-09-04T07:09:11.589Z,19.10
2022-09-04T07:12:22.510Z,19.50
2022-09-04T07:15:48.754Z,20.20
2022-09-04T07:19:21.687Z,19.80
2022-09-04T07:22:45.587Z,20.30
2022-09-04T07:26:15.654Z,20.20
2022-09-04T07:29:35.129Z,19.20
2022-09-04T07:32:43.409Z,20.40
2022-09-04T07:35:59.030Z,20.60
2022-09-04T07:39:44.025Z,22.60
2022-09-04T07:42:59.899Z,19.50
2022-09-04T07:46:18.743Z,19.70
2022-09-04T07:49:37.692Z,22.30
2022-09-04T07:52:54.602Z,21.30
2022-09-04T07:56:35.438Z,20.40
2022-09-04T07:59:59.482Z,21.80
2022-09-04T08:03:04.459Z,21.20
2022-09-04T08:06:30.149Z,21.40
2022-09-04T08:09:37.042Z,21.60
2022-09-04T08:13:08.941Z,22.90
2022-09-04T08:16:20.474Z,23.90
2022-09-04T08:19:50.101Z,21.30
2022-09-04T08:22:55.641Z,22.50
2022-09-04T08:26:14.663Z,22.20
2022-09-04T08:29:32.652Z,21.20
2022-09-04T08:32:55.349Z,20.90
2022-09-04T08:35:59.882Z,19.70
2022-09-04T08:39:09.604Z,21.70
2022-09-04T08:42:54.328Z,19.80
2022-09-04T08:46:28.791Z,16.60
2022-09-04T08:49:56.894Z,19.20
2022-09-04T08:53:13.735Z,22.10
2022-09-04T08:56:22.146Z,16.20
2022-09-04T08:59:51.975Z,16.80
2022-09-04T09:03:11.454Z,18.30
2022-09-04T09:06:13.623Z,15.20
2022-09-04T09:09:50.702Z,17.10
2022-09-04T09:13:16.801Z,16.50
2022-09-04T09:16:23.728Z,18.00
2022-09-04T09:19:40.910Z,15.40
2022-09-04T09:23:21.147Z,14.00
2022-09-04T09:26:29.280Z,13.40
2022-09-04T09:29:38.795Z,10.70
2022-09-04T09:33:35.341Z,15.20
2022-09-04T09:37:02.569Z,14.30
2022-09-04T09:40:16.989Z,14.70
2022-09-04T09:43:30.718Z,14.60
2022-09-04T09:46:58.369Z,13.20
2022-09-04T09:50:15.173Z,11.50
2022-09-04T09:53:46.448Z,16.20
2022-09-04T09:57:20.245Z,13.50
2022-09-04T10:00:55.218Z,14.10
2022-09-04T10:04:19.010Z,13.40
2022-09-04T10:07:42.635Z,16.10
2022-09-04T10:10:59.373Z,15.10
2022-09-04T10:14:39.182Z,15.00
2022-09-04T10:18:07.544Z,13.70
2022-09-04T10:21:46.468Z,13.40
2022-09-04T10:25:09.825Z,13.10
2022-09-04T10:28:34.628Z,11.90
2022-09-04T10:31:48.685Z,12.60
2022-09-04T10:35:25.484Z,9.60
2022-09-04T10:38:35.874Z,10.60
2022-09-04T10:42:11.796Z,12.10
2022-09-04T10:45:27.110Z,14.20
2022-09-04T10:48:48.263Z,11.50
2022-09-04T10:52:41.787Z,10.30
2022-09-04T10:55:47.955Z,11.10
2022-09-04T10:59:01.261Z,10.90
2022-09-04T11:02:41.146Z,8.30
2022-09-04T11:05:52.458Z,10.20
2022-09-04T11:09:11.488Z,9.80
2022-09-04T11:12:38.203Z,11.20
2022-09-04T11:16:16.923Z,10.30
2022-09-04T11:19:34.476Z,10.30
2022-09-04T11:23:01.293Z,8.70
2022-09-04T11:26:08.327Z,7.70
2022-09-04T11:29:22.526Z,7.20
2022-09-04T11:32:52.379Z,7.50
2022-09-04T11:36:19.186Z,8.50
2022-09-04T11:39:39.274Z,12.50
2022-09-04T11:42:50.336Z,9.90
2022-09-04T11:46:05.651Z,7.80
2022-09-04T11:49:28.257Z,6.10
2022-09-04T11:52:47.238Z,8.70
2022-09-04T11:56:14.008Z,8.90
2022-09-04T11:59:40.923Z,6.50
2022-09-04T12:03:04.586Z,7.50
2022-09-04T12:06:13.774Z,6.90
2022-09-04T12:09:36.293Z,9.30
2022-09-04T12:12:47.082Z,10.00
2022-09-04T12:16:07.293Z,10.30
2022-09-04T12:19:50.476Z,8.80
2022-09-04T12:23:14.154Z,11.00
2022-09-04T12:26:51.120Z,6.80
2022-09-04T12:30:15.101Z,8.30
2022-09-04T12:33:35.415Z,8.60
2022-09-04T12:37:02.346Z,6.80
2022-09-04T12:40:29.383Z,9.80
2022-09-04T12:43:41.882Z,10.00
2022-09-04T12:46:50.366Z,5.90
2022-09-04T12:50:16.216Z,6.90
2022-09-04T12:53:27.658Z,9.60
2022-09-04T12:56:32.216Z,8.60
2022-09-04T12:59:49.710Z,6.60
2022-09-04T13:03:17.494Z,10.40
2022-09-04T13:06:48.225Z,9.50
2022-09-04T13:10:04.106Z,10.20
2022-09-04T13:13:08.516Z,11.50
2022-09-04T13:16:27.552Z,9.80
2022-09-04T13:19:50.095Z,8.60
2022-09-04T13:23:17.758Z,7.60
2022-09-04T13:26:44.191Z,7.90
2022-09-04T13:30:02.845Z,7.20
2022-09-04T13:33:12.411Z,9.10
2022-09-04T13:36:24.831Z,9.10
2022-09-04T13:39:39.074Z,9.80
2022-09-04T13:42:54.426Z,11.10
2022-09-04T13:46:03.382Z,9.30
2022-09-04T13:49:16.470Z,5.80
2022-09-04T13:52:24.563Z,6.60
2022-09-04T13:55:38.927Z,8.00
2022-09-04T13:58:48.607Z,9.00
2022-09-04T14:01:54.888Z,9.70
2022-09-04T14:05:14.355Z,12.30
2022-09-04T14:08:17.918Z,11.50
2022-09-04T14:11:50.861Z,7.50
2022-09-04T14:15:05.703Z,7.80
2022-09-04T14:18:29.704Z,8.10
2022-09-04T14:21:47.430Z,9.60
2022-09-04T14:25:01.328Z,11.40
2022-09-04T14:28:20.762Z,12.20
2022-09-04T14:31:38.060Z,11.40
2022-09-04T14:34:57.286Z,11.20
2022-09-04T14:38:19.333Z,9.00
2022-09-04T14:41:36.143Z,10.00
2022-09-04T14:44:56.641Z,9.50
2022-09-04T14:48:03.691Z,9.40
2022-09-04T14:51:35.995Z,13.90
2022-09-04T14:54:40.264Z,11.00
2022-09-04T14:57:59.532Z,9.20
2022-09-04T15:01:07.205Z,11.90
2022-09-04T15:04:22.775Z,9.80
2022-09-04T15:07:49.663Z,12.10
2022-09-04T15:10:53.883Z,14.10
2022-09-04T15:14:05.273Z,8.00
2022-09-04T15:17:14.802Z,13.30
2022-09-04T15:20:22.713Z,9.80
2022-09-04T15:23:34.217Z,9.00
2022-09-04T15:26:46.266Z,12.40
2022-09-04T15:29:48.539Z,11.20
2022-09-04T15:33:05.582Z,9.50
2022-09-04T15:36:10.984Z,8.20
2022-09-04T15:39:25.710Z,10.30
2022-09-04T15:42:53.784Z,11.40
2022-09-04T15:46:03.634Z,9.00
2022-09-04T15:49:36.718Z,7.80
2022-09-04T15:52:45.090Z,11.10
2022-09-04T15:55:48.573Z,14.30
2022-09-04T15:59:12.237Z,10.10
2022-09-04T16:02:25.275Z,10.50
2022-09-04T16:05:59.842Z,14.10
2022-09-04T16:09:09.833Z,12.20
2022-09-04T16:12:18.054Z,16.50
2022-09-04T16:15:37.433Z,16.00
2022-09-04T16:18:43.679Z,19.10
2022-09-04T16:21:58.502Z,17.10
2022-09-04T16:25:10.403Z,16.50
2022-09-04T16:28:22.805Z,16.00
2022-09-04T16:31:34.927Z,17.80
2022-09-04T16:34:43.673Z,17.50
2022-09-04T16:37:52.826Z,16.20
2022-09-04T16:41:00.390Z,18.90
2022-09-04T16:44:15.180Z,20.10
2022-09-04T16:47:23.696Z,19.60
2022-09-04T16:50:27.454Z,17.80
2022-09-04T16:53:29.416Z,21.50
2022-09-04T16:56:45.611Z,18.80
2022-09-04T16:59:53.363Z,18.40
2022-09-04T17:03:00.790Z,19.80
2022-09-04T17:06:09.366Z,20.70
2022-09-04T17:09:54.697Z,20.50
2022-09-04T17:13:01.552Z,20.60
2022-09-04T17:16:09.675Z,20.40
2022-09-04T17:19:14.070Z,19.50
2022-09-04T17:28:55.846Z,19.20
2022-09-04T17:29:04.611Z,21.00
2022-09-04T17:30:02.352Z,20.90
2022-09-04T17:38:26.950Z,20.90
2022-09-04T17:40:53.994Z,22.90
2022-09-04T17:40:54.608Z,22.60
2022-09-04T17:44:02.271Z,23.20
2022-09-04T17:47:41.602Z,22.50
2022-09-04T17:50:52.131Z,20.40
2022-09-04T17:53:57.441Z,27.80
2022-09-04T17:57:14.220Z,21.50
2022-09-04T18:00:25.000Z,21.30
2022-09-04T18:03:41.258Z,24.00
2022-09-04T18:08:07.865Z,20.90
2022-09-04T18:11:13.927Z,21.80
2022-09-04T18:14:32.002Z,23.60
2022-09-04T18:17:47.924Z,28.50
2022-09-04T18:20:55.421Z,25.40
2022-09-04T18:23:59.804Z,25.10
2022-09-04T18:27:08.481Z,23.60
2022-09-04T18:34:48.805Z,27.70
2022-09-04T18:37:26.560Z,27.00
2022-09-04T18:37:47.425Z,29.30
2022-09-04T18:43:01.993Z,30.50
2022-09-04T18:50:21.097Z,30.00
2022-09-04T18:50:29.499Z,26.90
2022-09-04T18:51:31.880Z,26.70
2022-09-04T18:55:08.802Z,26.00
2022-09-04T18:58:10.503Z,25.30
2022-09-04T19:01:26.732Z,24.00
2022-09-04T19:04:38.256Z,24.70
2022-09-04T19:07:48.170Z,24.60
2022-09-04T19:10:54.158Z,24.30
2022-09-04T19:14:10.876Z,24.10
2022-09-04T19:17:27.211Z,27.50
2022-09-04T19:20:37.635Z,23.80
2022-09-04T19:24:15.594Z,25.60
2022-09-04T19:27:40.283Z,24.40
2022-09-04T19:30:54.125Z,25.60
2022-09-04T19:34:42.480Z,21.90
2022-09-04T19:40:24.726Z,23.30
2022-09-04T19:46:02.151Z,22.20
2022-09-04T19:46:07.454Z,24.10
2022-09-04T19:48:21.541Z,22.90
2022-09-04T19:53:24.359Z,26.10
2022-09-04T19:55:24.947Z,27.20
2022-09-04T19:58:45.906Z,25.60
2022-09-04T20:01:51.131Z,24.50
2022-09-04T20:04:58.313Z,24.20
2022-09-04T20:08:18.782Z,21.50
2022-09-04T20:11:51.538Z,24.30
2022-09-04T20:14:58.853Z,21.60
2022-09-04T20:18:09.817Z,32.00
2022-09-04T20:21:20.279Z,25.90
2022-09-04T20:25:01.448Z,26.10
2022-09-04T20:28:20.460Z,24.60
2022-09-04T20:31:35.370Z,26.50
2022-09-04T20:34:43.629Z,26.60
2022-09-04T20:37:53.859Z,24.30
2022-09-04T20:41:20.744Z,22.30
2022-09-04T20:44:55.270Z,25.50
2022-09-04T20:52:51.289Z,25.60
2022-09-04T20:52:57.775Z,25.50
2022-09-04T20:55:33.861Z,25.30
2022-09-04T21:03:07.646Z,24.80
2022-09-04T21:03:23.237Z,25.30
2022-09-04T21:06:10.440Z,23.40
2022-09-04T21:09:30.781Z,26.20
2022-09-04T21:12:37.925Z,26.70
2022-09-04T21:15:45.891Z,24.90
2022-09-04T21:19:27.791Z,24.60
2022-09-04T21:22:36.024Z,26.40
2022-09-04T21:25:51.646Z,25.80
2022-09-04T21:29:14.629Z,25.20
2022-09-04T21:32:29.219Z,25.30
2022-09-04T21:35:36.172Z,27.70
2022-09-04T21:39:09.414Z,27.10
2022-09-04T21:42:42.251Z,26.00
2022-09-04T21:46:13.053Z,27.70
2022-09-04T21:49:31.962Z,25.60
2022-09-04T21:53:16.909Z,29.10
2022-09-04T21:57:13.498Z,26.80
2022-09-04T22:02:41.529Z,24.90
2022-09-04T22:03:33.974Z,23.70
2022-09-04T22:09:00.223Z,26.30
2022-09-04T22:13:34.893Z,22.70
2022-09-04T22:14:03.127Z,22.30
2022-09-04T22:20:29.706Z,20.30
2022-09-04T22:24:15.211Z,19.70
2022-09-04T22:28:04.548Z,21.30
2022-09-04T22:31:15.308Z,20.00
2022-09-04T22:34:38.687Z,22.80
2022-09-04T22:38:17.787Z,19.00
2022-09-04T22:41:41.643Z,20.80
2022-09-04T22:44:57.175Z,21.20
2022-09-04T22:49:12.939Z,21.90
2022-09-04T22:52:26.955Z,20.00
2022-09-04T22:56:00.639Z,21.30
2022-09-04T22:59:44.121Z,22.00
2022-09-04T23:03:12.030Z,22.10
2022-09-04T23:11:42.026Z,21.90
2022-09-04T23:13:50.736Z,23.90
2022-09-04T23:14:18.838Z,24.00
2022-09-04T23:17:30.340Z,21.60
2022-09-04T23:26:33.254Z,24.90
2022-09-04T23:26:53.142Z,22.80
2022-09-04T23:28:30.686Z,22.90
2022-09-04T23:32:09.626Z,21.40
2022-09-04T23:35:53.575Z,22.10
2022-09-04T23:39:37.128Z,25.50
2022-09-04T23:43:14.059Z,24.20
2022-09-04T23:46:47.983Z,23.30
2022-09-04T23:50:31.384Z,24.00
2022-09-04T23:53:55.741Z,22.10
2022-09-04T23:57:27.270Z,24.40
